KPTB/PTB METAR and TAF weather

Enter ICAO airport designator
Station Type Date Time Source
KPTB METAR 2019/05/25 14:55 UTC NOAA

KPTB 251455Z AUTO 00000KT 10SM CLR 26/14 A3019 RMK AO2 T02630144


Station Type Date Time Source
KPTB Decoded METAR 2019/05/25 14:55 UTC NOAA

Petersburg, Dinwiddie County Airport, VA, United States (KPTB) 37-11N 077-31W
May 25, 2019 - 10:55 AM EDT / 2019.05.25 1455 UTC
Wind: Calm:0
Visibility: 10 mile(s):0
Sky conditions: clear
Temperature: 79.3 F (26.3 C)
Dew Point: 57.9 F (14.4 C)
Relative Humidity: 47%
Pressure (altimeter): 30.19 in. Hg (1022 hPa)
ob: KPTB 251455Z AUTO 00000KT 10SM CLR 26/14 A3019 RMK AO2 T02630144
cycle: 15

Station Type Date Time Source
KPTB TAF UTC NOAA

Error!

Example: see airport list